Erick, Oklahoma
Current Conditions -  °F | °C
As of 10:55 PM on Monday 22 Dec 2014 (Local Time) from KELK Reporting Station
Clear Clear  
Wind Chill: 109°   Ceiling: Unl
Heat Index: 205°   Visibility: 10mi
Dew Point: 100°   Wind: 7mph
Humidity: 76%   Direction: 320°NW
Pressure: 29.77"   Gusts: NA
Location:  35.22°N, 99.87°W
Report Text: KELK 230455Z AUTO 32006KT 10SM CLR 43/38 A2977 RMK AO2
Loading
Personal Weather Stations






























Interactive Weather Map New forecast layout! Learn more

10-Day Weather Forecast

Advertisements
Track Severe Weather on mobile